Time;durP1;ratioP1;P1;durP2;ratioP2;P2;SDS_P1;SDS_P2;PMS_P1;PMS_P2;Temp;Humidity;BMP_temperature;BMP_pressure;BME280_temperature;BME280_humidity;BME280_pressure;Samples;Min_cycle;Max_cycle;Signal;HPM_P1;HPM_P2
2023/08/16 00:00:58;;;;;;;7.40;3.35;;;;;;;19.67;100.00;96134.72;5010292;28;24433;-76
2023/08/16 00:03:25;;;;;;;10.98;2.90;;;;;;;19.62;100.00;96136.13;4994057;28;24481;-76
2023/08/16 00:05:52;;;;;;;5.23;2.60;;;;;;;19.33;100.00;96147.50;4990998;28;24433;-76
2023/08/16 00:08:18;;;;;;;5.85;2.40;;;;;;;18.79;100.00;96143.66;4991178;28;24520;-77
2023/08/16 00:10:45;;;;;;;3.30;2.45;;;;;;;18.74;100.00;96145.91;5003225;28;24452;-77
2023/08/16 00:13:13;;;;;;;3.42;2.08;;;;;;;18.62;100.00;96143.38;5010028;28;24479;-76
2023/08/16 00:15:39;;;;;;;4.07;2.78;;;;;;;18.77;100.00;96150.88;5010122;28;24436;-76
2023/08/16 00:18:06;;;;;;;3.22;2.42;;;;;;;18.91;100.00;96137.34;5010151;28;24413;-76
2023/08/16 00:20:33;;;;;;;3.30;2.28;;;;;;;18.97;100.00;96144.63;5001554;28;24456;-77
2023/08/16 00:22:59;;;;;;;3.63;2.25;;;;;;;18.88;100.00;96142.03;5002543;28;24443;-76
2023/08/16 00:25:26;;;;;;;5.22;2.47;;;;;;;18.89;100.00;96141.88;5009920;28;24431;-76
2023/08/16 00:27:52;;;;;;;3.45;2.30;;;;;;;18.92;100.00;96136.38;5010192;28;24776;-76
2023/08/16 00:30:20;;;;;;;7.78;2.53;;;;;;;18.93;100.00;96140.63;5010075;28;24436;-76
2023/08/16 00:32:46;;;;;;;3.42;2.30;;;;;;;18.99;100.00;96134.03;5009542;28;24451;-76
2023/08/16 00:35:13;;;;;;;5.03;2.63;;;;;;;19.08;100.00;96133.16;5006429;28;24433;-76
2023/08/16 00:37:40;;;;;;;2.83;2.30;;;;;;;19.16;100.00;96129.84;4999874;28;24459;-76
2023/08/16 00:40:08;;;;;;;3.13;2.38;;;;;;;19.20;100.00;96116.28;5005243;28;24457;-76
2023/08/16 00:42:35;;;;;;;3.38;2.40;;;;;;;19.19;100.00;96122.50;4990114;28;24463;-76
2023/08/16 00:45:01;;;;;;;4.65;2.60;;;;;;;19.22;100.00;96116.97;4990454;28;24436;-76
2023/08/16 00:47:29;;;;;;;3.53;2.47;;;;;;;19.13;100.00;96109.13;4990411;28;24762;-76
2023/08/16 00:49:56;;;;;;;3.03;2.50;;;;;;;19.09;100.00;96106.75;5009347;28;24444;-76
2023/08/16 00:52:22;;;;;;;3.63;2.40;;;;;;;19.18;100.00;96093.78;5003770;28;24445;-76
2023/08/16 00:54:49;;;;;;;5.33;2.37;;;;;;;19.23;100.00;96100.25;5013598;28;24452;-77
2023/08/16 00:57:16;;;;;;;2.80;2.25;;;;;;;19.04;100.00;96100.28;4997089;28;24821;-76
2023/08/16 00:59:43;;;;;;;4.43;2.70;;;;;;;18.96;100.00;96113.28;5008688;28;24444;-76
2023/08/16 01:02:10;;;;;;;3.13;2.47;;;;;;;18.81;100.00;96105.84;4993521;28;24428;-76
2023/08/16 01:04:38;;;;;;;3.40;2.45;;;;;;;18.84;100.00;96110.81;4998581;28;25013;-76
2023/08/16 01:07:05;;;;;;;3.87;2.77;;;;;;;18.62;100.00;96103.19;5004065;28;24502;-76
2023/08/16 01:09:31;;;;;;;6.20;2.60;;;;;;;18.73;100.00;96097.00;5013203;28;24420;-76
2023/08/16 01:12:05;;;;;;;3.22;2.25;;;;;;;18.77;100.00;96096.59;5012901;28;24416;-76
2023/08/16 01:14:42;;;;;;;4.82;2.30;;;;;;;18.75;100.00;96087.19;5012892;28;24946;-74
2023/08/16 01:17:09;;;;;;;2.97;2.28;;;;;;;18.70;100.00;96084.13;5002426;28;24440;-77
2023/08/16 01:19:37;;;;;;;3.30;2.08;;;;;;;18.86;100.00;96089.66;4993418;28;24425;-76
2023/08/16 01:22:15;;;;;;;5.43;2.30;;;;;;;19.02;100.00;96081.22;4993187;28;24448;-76
2023/08/16 01:24:52;;;;;;;4.88;2.28;;;;;;;18.77;100.00;96082.66;4993342;28;24404;-76
2023/08/16 01:27:21;;;;;;;3.35;2.13;;;;;;;18.57;100.00;96087.03;4993425;28;24427;-76
2023/08/16 01:29:49;;;;;;;7.55;2.35;;;;;;;18.51;100.00;96085.78;4992921;28;24528;-76
2023/08/16 01:32:15;;;;;;;3.43;2.10;;;;;;;18.52;100.00;96086.63;4992681;28;24424;-76
2023/08/16 01:34:42;;;;;;;3.50;2.58;;;;;;;18.61;100.00;96088.41;4993344;28;24536;-76
2023/08/16 01:37:08;;;;;;;3.03;2.10;;;;;;;18.50;100.00;96092.00;4993153;28;24425;-76
2023/08/16 01:39:35;;;;;;;3.65;2.25;;;;;;;18.42;100.00;96091.84;4993069;28;24811;-76
2023/08/16 01:42:04;;;;;;;4.70;2.30;;;;;;;18.44;100.00;96104.84;4993058;28;24417;-77
2023/08/16 01:44:35;;;;;;;4.47;2.15;;;;;;;18.47;100.00;96102.78;5005031;28;24443;-76
2023/08/16 01:47:03;;;;;;;5.75;2.38;;;;;;;18.52;100.00;96105.78;5012377;28;24538;-77
2023/08/16 01:49:29;;;;;;;5.53;2.22;;;;;;;18.46;100.00;96095.84;5012335;28;24428;-76
2023/08/16 01:51:56;;;;;;;3.10;2.13;;;;;;;18.48;100.00;96090.47;5012245;28;24432;-77
2023/08/16 01:54:22;;;;;;;2.05;1.67;;;;;;;18.43;100.00;96095.28;4973471;28;24460;-76
2023/08/16 01:56:49;;;;;;;3.47;1.88;;;;;;;18.34;100.00;96100.38;4973499;28;24433;-76
2023/08/16 01:59:15;;;;;;;3.03;1.98;;;;;;;18.40;100.00;96099.03;4973266;28;24444;-77
2023/08/16 02:01:43;;;;;;;3.40;2.50;;;;;;;18.49;100.00;96090.34;4973131;28;24837;-76
2023/08/16 02:04:10;;;;;;;10.57;2.58;;;;;;;18.59;100.00;96092.97;4972265;28;24975;-76
2023/08/16 02:06:36;;;;;;;3.38;2.20;;;;;;;18.52;100.00;96094.47;4973287;28;24539;-76
2023/08/16 02:09:03;;;;;;;5.75;2.17;;;;;;;18.40;100.00;96087.72;4973163;28;24429;-76
2023/08/16 02:11:30;;;;;;;4.95;2.20;;;;;;;18.29;100.00;96091.28;4972992;28;24425;-76
2023/08/16 02:13:57;;;;;;;5.57;2.63;;;;;;;18.17;100.00;96093.22;4972885;28;24456;-76
2023/08/16 02:16:24;;;;;;;3.47;2.78;;;;;;;18.03;100.00;96088.34;4972993;28;24444;-77
2023/08/16 02:18:52;;;;;;;4.82;3.38;;;;;;;17.98;100.00;96087.91;4973043;28;24418;-76
2023/08/16 02:21:19;;;;;;;8.40;3.10;;;;;;;17.99;100.00;96079.09;4972709;28;24433;-76
2023/08/16 02:23:45;;;;;;;16.05;4.00;;;;;;;17.99;100.00;96079.91;4973018;28;24445;-76
2023/08/16 02:26:12;;;;;;;9.88;3.33;;;;;;;18.06;100.00;96075.81;5010079;28;24428;-75
2023/08/16 02:28:38;;;;;;;11.82;3.50;;;;;;;18.13;100.00;96071.69;5011771;28;24437;-75
2023/08/16 02:31:05;;;;;;;4.03;2.90;;;;;;;18.20;100.00;96073.75;5010859;28;24440;-77
2023/08/16 02:33:32;;;;;;;5.00;2.70;;;;;;;18.27;100.00;96065.19;5010527;28;24901;-76
2023/08/16 02:36:00;;;;;;;3.30;2.47;;;;;;;18.31;100.00;96066.56;5010902;28;24459;-76
2023/08/16 02:38:27;;;;;;;2.70;2.22;;;;;;;18.34;100.00;96068.09;4997413;28;24436;-76
2023/08/16 02:40:54;;;;;;;2.90;2.60;;;;;;;18.38;100.00;96069.47;5003167;28;24441;-75
2023/08/16 02:43:20;;;;;;;8.93;2.15;;;;;;;18.42;100.00;96065.63;5003375;28;24456;-76
2023/08/16 02:45:47;;;;;;;14.15;2.70;;;;;;;18.34;100.00;96065.47;5011108;28;24420;-76
2023/08/16 02:48:13;;;;;;;5.75;2.42;;;;;;;18.29;100.00;96059.81;5008419;28;26515;-77
2023/08/16 02:50:40;;;;;;;7.78;2.80;;;;;;;18.21;100.00;96063.13;4991403;28;24436;-77
2023/08/16 02:53:08;;;;;;;8.18;2.38;;;;;;;18.25;100.00;96063.69;5000918;28;25015;-76
2023/08/16 02:55:34;;;;;;;18.80;2.25;;;;;;;18.18;100.00;96065.19;5011343;28;24579;-76
2023/08/16 02:58:01;;;;;;;4.10;2.00;;;;;;;18.14;100.00;96072.50;4994889;28;24519;-76
2023/08/16 03:00:29;;;;;;;8.43;1.75;;;;;;;18.08;100.00;96078.28;4991200;28;24425;-76
2023/08/16 03:02:56;;;;;;;15.63;1.90;;;;;;;17.73;100.00;96090.00;4991380;28;24417;-76
2023/08/16 03:05:22;;;;;;;1.88;1.77;;;;;;;17.76;100.00;96083.69;4992898;28;24556;-76
2023/08/16 03:07:49;;;;;;;5.30;1.90;;;;;;;17.83;100.00;96074.34;4991668;28;24429;-76
2023/08/16 03:10:17;;;;;;;4.65;2.00;;;;;;;17.89;100.00;96079.06;4993371;28;24441;-76
2023/08/16 03:12:43;;;;;;;4.57;2.28;;;;;;;17.86;100.00;96093.25;5010506;28;24412;-76
2023/08/16 03:15:10;;;;;;;3.78;2.33;;;;;;;17.87;100.00;96100.16;5010943;28;24455;-76
2023/08/16 03:17:37;;;;;;;2.45;2.25;;;;;;;17.89;100.00;96103.47;5010778;28;24413;-76
2023/08/16 03:20:06;;;;;;;9.77;2.47;;;;;;;17.90;100.00;96118.22;5010880;28;24431;-76
2023/08/16 03:22:32;;;;;;;33.30;3.40;;;;;;;17.59;100.00;96122.63;5008161;28;24527;-76
2023/08/16 03:24:59;;;;;;;33.72;3.00;;;;;;;17.34;100.00;96147.44;4991059;28;24420;-76
2023/08/16 03:27:26;;;;;;;3.90;2.65;;;;;;;17.13;100.00;96171.00;4990916;28;24428;-76
2023/08/16 03:29:53;;;;;;;3.00;2.70;;;;;;;17.29;100.00;96160.09;5006108;28;24452;-76
2023/08/16 03:32:19;;;;;;;3.30;2.53;;;;;;;17.39;100.00;96137.41;5008294;28;24432;-76
2023/08/16 03:34:46;;;;;;;2.63;2.40;;;;;;;17.28;100.00;96154.97;4991017;28;24448;-76
2023/08/16 03:37:12;;;;;;;3.03;2.43;;;;;;;17.29;100.00;96160.09;4991166;28;24428;-76
2023/08/16 03:39:39;;;;;;;3.88;2.85;;;;;;;17.35;100.00;96154.34;4990589;28;24959;-76
2023/08/16 03:42:06;;;;;;;3.17;2.20;;;;;;;17.65;100.00;96147.47;5006220;28;24432;-76
2023/08/16 03:44:33;;;;;;;2.78;2.53;;;;;;;17.75;100.00;96155.38;5009590;28;24539;-76
2023/08/16 03:47:00;;;;;;;2.63;2.25;;;;;;;17.70;100.00;96145.28;5010153;28;24436;-75
2023/08/16 03:49:27;;;;;;;3.40;2.28;;;;;;;17.72;100.00;96151.19;4999322;28;25038;-75
2023/08/16 03:51:53;;;;;;;3.30;2.15;;;;;;;17.65;100.00;96153.53;4990811;28;24440;-75
2023/08/16 03:54:19;;;;;;;2.42;2.10;;;;;;;17.72;100.00;96151.19;4992938;28;24471;-76
2023/08/16 03:56:46;;;;;;;2.75;2.10;;;;;;;17.75;100.00;96155.38;5009643;28;24976;-75
2023/08/16 03:59:12;;;;;;;2.63;2.28;;;;;;;17.75;100.00;96155.38;5001958;28;24440;-74
2023/08/16 04:01:40;;;;;;;2.88;2.03;;;;;;;17.79;100.00;96154.16;4992015;28;24444;-74
2023/08/16 04:04:07;;;;;;;2.90;2.17;;;;;;;17.80;100.00;96154.06;5006350;28;24440;-74
2023/08/16 04:06:33;;;;;;;2.33;2.13;;;;;;;17.82;100.00;96156.53;4991344;28;24468;-74
2023/08/16 04:09:00;;;;;;;3.10;2.00;;;;;;;17.84;100.00;96159.88;4997206;28;24443;-75
2023/08/16 04:11:26;;;;;;;5.20;2.50;;;;;;;17.89;100.00;96162.91;4997413;28;24446;-75
2023/08/16 04:13:53;;;;;;;3.70;2.50;;;;;;;17.90;100.00;96151.47;4990978;28;24801;-75
2023/08/16 04:16:19;;;;;;;2.70;2.00;;;;;;;17.92;100.00;96139.06;4991680;28;24797;-75
2023/08/16 04:18:50;;;;;;;4.57;2.70;;;;;;;17.88;100.00;96130.63;4990965;28;24440;-75
2023/08/16 04:21:16;;;;;;;3.08;2.53;;;;;;;17.93;100.00;96129.41;4990831;28;24454;-75
2023/08/16 04:23:42;;;;;;;3.45;2.60;;;;;;;17.98;100.00;96120.16;4991414;28;24436;-74
2023/08/16 04:26:09;;;;;;;3.70;2.70;;;;;;;17.91;100.00;96116.44;4991504;28;25209;-75
2023/08/16 04:28:35;;;;;;;4.38;2.90;;;;;;;17.61;100.00;96107.63;5013038;28;24445;-75
2023/08/16 04:31:03;;;;;;;6.18;3.10;;;;;;;17.61;100.00;96110.25;5014151;28;24999;-74
2023/08/16 04:33:29;;;;;;;2.75;2.50;;;;;;;17.61;100.00;96109.38;5004894;28;24443;-75
2023/08/16 04:35:57;;;;;;;4.57;2.70;;;;;;;17.71;100.00;96102.41;5008707;28;24455;-74
2023/08/16 04:38:24;;;;;;;3.70;2.70;;;;;;;17.70;100.00;96082.41;5013225;28;24433;-75
2023/08/16 04:40:50;;;;;;;3.20;2.70;;;;;;;18.00;100.00;96080.75;4998970;28;24563;-75
2023/08/16 04:43:18;;;;;;;3.67;2.60;;;;;;;17.82;100.00;96080.56;5013500;28;24818;-75
2023/08/16 04:45:45;;;;;;;3.20;2.53;;;;;;;17.77;100.00;96074.91;5014636;28;24440;-75
2023/08/16 04:48:11;;;;;;;4.50;2.72;;;;;;;18.05;100.00;96068.06;5014045;28;24532;-77
2023/08/16 04:50:38;;;;;;;4.00;2.90;;;;;;;17.93;100.00;96067.34;4997232;28;24447;-76
2023/08/16 04:53:06;;;;;;;3.42;2.70;;;;;;;17.95;100.00;96062.81;5012278;28;24432;-76
2023/08/16 04:55:32;;;;;;;3.10;2.58;;;;;;;18.04;100.00;96056.75;5003381;28;24556;-76
2023/08/16 04:57:58;;;;;;;2.78;2.33;;;;;;;18.15;100.00;96068.91;4993845;28;24425;-77
2023/08/16 05:00:25;;;;;;;3.20;2.60;;;;;;;18.23;100.00;96079.53;5009958;28;24538;-76
2023/08/16 05:02:51;;;;;;;4.30;2.50;;;;;;;18.36;100.00;96089.78;4993882;28;24420;-76
2023/08/16 05:05:18;;;;;;;4.70;2.40;;;;;;;18.44;100.00;96100.41;5001804;28;24801;-76
2023/08/16 05:07:44;;;;;;;3.20;2.10;;;;;;;18.47;100.00;96104.56;5001820;28;24440;-76
2023/08/16 05:10:14;;;;;;;4.50;2.80;;;;;;;18.24;100.00;96106.56;5005477;28;24440;-77
2023/08/16 05:12:41;;;;;;;4.88;2.78;;;;;;;18.37;100.00;96113.22;4993328;28;24841;-76
2023/08/16 05:15:09;;;;;;;2.72;2.28;;;;;;;18.50;100.00;96113.00;4999450;28;24456;-76
2023/08/16 05:17:35;;;;;;;3.97;2.47;;;;;;;18.59;100.00;96117.41;5003037;28;24936;-76
2023/08/16 05:20:02;;;;;;;2.60;2.13;;;;;;;18.67;100.00;96119.34;5006945;28;24804;-76
2023/08/16 05:22:29;;;;;;;2.53;2.17;;;;;;;18.73;100.00;96116.22;5011759;28;24444;-76
2023/08/16 05:24:55;;;;;;;3.83;2.63;;;;;;;18.84;100.00;96112.63;4997740;28;24436;-76
2023/08/16 05:27:23;;;;;;;2.58;2.38;;;;;;;18.90;100.00;96112.03;4998450;28;24440;-77
2023/08/16 05:29:49;;;;;;;3.33;2.38;;;;;;;19.05;100.00;96120.31;4993093;28;24968;-76
2023/08/16 05:32:16;;;;;;;2.85;2.55;;;;;;;19.05;100.00;96121.13;5008754;28;24440;-76
2023/08/16 05:34:42;;;;;;;2.50;2.30;;;;;;;18.96;100.00;96123.78;4996567;28;24460;-76
2023/08/16 05:37:09;;;;;;;3.13;2.53;;;;;;;18.99;100.00;96119.09;5012961;28;24416;-76
2023/08/16 05:39:35;;;;;;;4.10;2.53;;;;;;;19.01;100.00;96114.53;5001962;28;25186;-79
2023/08/16 05:42:02;;;;;;;6.20;2.83;;;;;;;18.91;100.00;96123.38;4993107;28;24437;-78
2023/08/16 05:44:30;;;;;;;5.53;3.03;;;;;;;18.78;100.00;96134.16;4993202;28;24433;-78
2023/08/16 05:46:56;;;;;;;3.42;2.50;;;;;;;18.74;100.00;96145.91;4992306;28;24456;-78
2023/08/16 05:49:23;;;;;;;4.63;2.63;;;;;;;18.79;100.00;96141.06;5007088;28;24524;-78
2023/08/16 05:51:49;;;;;;;3.67;2.70;;;;;;;18.71;100.00;96146.97;5011701;28;25070;-78
2023/08/16 05:54:16;;;;;;;3.83;2.70;;;;;;;18.78;100.00;96142.84;5002949;28;24440;-78
2023/08/16 05:56:42;;;;;;;4.75;2.88;;;;;;;18.80;100.00;96147.94;4994596;28;24455;-78
2023/08/16 05:59:09;;;;;;;5.47;2.83;;;;;;;18.91;100.00;96141.72;4993721;28;24436;-78
2023/08/16 06:01:36;;;;;;;8.25;3.38;;;;;;;18.95;100.00;96143.97;4995842;28;24424;-79
2023/08/16 06:04:03;;;;;;;6.10;3.30;;;;;;;18.95;100.00;96145.72;5016085;28;24808;-78
2023/08/16 06:06:30;;;;;;;4.03;3.00;;;;;;;18.91;100.00;96158.34;4994524;28;24441;-77
2023/08/16 06:08:56;;;;;;;4.65;2.88;;;;;;;19.01;100.00;96156.50;4994268;28;25011;-77
2023/08/16 06:11:23;;;;;;;5.22;2.95;;;;;;;19.04;100.00;96147.53;5002896;28;24437;-77
2023/08/16 06:13:49;;;;;;;3.38;2.55;;;;;;;19.17;100.00;96147.25;5003960;28;24444;-78
2023/08/16 06:16:15;;;;;;;5.07;2.57;;;;;;;19.31;100.00;96141.56;4992643;28;24440;-79
2023/08/16 06:18:44;;;;;;;3.58;2.70;;;;;;;19.46;100.00;96147.19;4993961;28;24458;-78
2023/08/16 06:21:11;;;;;;;3.42;2.78;;;;;;;19.50;100.00;96149.38;5001941;28;24453;-79
2023/08/16 06:23:38;;;;;;;6.07;3.50;;;;;;;19.46;100.00;96147.19;5011843;28;24481;-77
2023/08/16 06:26:04;;;;;;;3.97;2.70;;;;;;;19.59;100.00;96151.19;5012257;28;24435;-78
2023/08/16 06:28:31;;;;;;;3.65;2.70;;;;;;;19.62;100.00;96152.75;5011938;28;24531;-78
2023/08/16 06:30:57;;;;;;;5.32;2.78;;;;;;;19.78;100.00;96150.31;5012383;28;24472;-78
2023/08/16 06:33:24;;;;;;;4.22;2.65;;;;;;;19.92;100.00;96153.47;5012583;28;24435;-78
2023/08/16 06:35:52;;;;;;;4.22;2.95;;;;;;;19.88;100.00;96155.56;4995524;28;24457;-78
2023/08/16 06:38:19;;;;;;;4.97;3.17;;;;;;;20.02;100.00;96157.72;4995136;28;24468;-76
2023/08/16 06:40:45;;;;;;;5.05;2.88;;;;;;;19.99;100.00;96154.56;4993482;28;24432;-79
2023/08/16 06:43:12;;;;;;;3.03;2.70;;;;;;;20.09;100.00;96155.31;4992877;28;24789;-78
2023/08/16 06:45:38;;;;;;;4.25;2.63;;;;;;;20.11;100.00;96152.56;4998055;28;25006;-79
2023/08/16 06:48:06;;;;;;;4.78;3.22;;;;;;;20.14;100.00;96157.53;5012681;28;25030;-78
2023/08/16 06:50:32;;;;;;;4.63;3.23;;;;;;;20.13;100.00;96153.22;4993634;28;24463;-78
2023/08/16 06:53:00;;;;;;;4.22;2.83;;;;;;;20.26;100.00;96153.72;4993046;28;24432;-78
2023/08/16 06:55:28;;;;;;;6.13;3.35;;;;;;;20.37;100.00;96158.78;4993054;28;24481;-78
2023/08/16 06:57:55;;;;;;;4.32;3.30;;;;;;;20.45;100.00;96160.66;4993015;28;24858;-78
2023/08/16 07:00:21;;;;;;;6.32;3.30;;;;;;;20.56;100.00;96155.22;4992218;28;24432;-78
2023/08/16 07:02:48;;;;;;;4.07;2.50;;;;;;;20.88;100.00;96149.47;5011727;28;24443;-78
2023/08/16 07:05:14;;;;;;;4.10;3.17;;;;;;;21.14;100.00;96149.53;5000659;28;24444;-76
2023/08/16 07:07:42;;;;;;;3.53;2.75;;;;;;;21.44;100.00;96150.94;4997872;28;24444;-78
2023/08/16 07:10:10;;;;;;;5.97;3.33;;;;;;;21.40;100.00;96144.31;5015594;28;24444;-78
2023/08/16 07:12:36;;;;;;;3.47;3.05;;;;;;;21.64;100.00;96143.63;4997403;28;24421;-78
2023/08/16 07:15:03;;;;;;;5.45;3.33;;;;;;;21.73;100.00;96152.44;4996178;28;24853;-78
2023/08/16 07:17:30;;;;;;;5.63;3.13;;;;;;;21.78;100.00;96144.88;4996154;28;24424;-78
2023/08/16 07:19:56;;;;;;;3.40;2.90;;;;;;;21.77;100.00;96143.22;5019337;28;24436;-79
2023/08/16 07:22:25;;;;;;;3.17;2.60;;;;;;;21.87;100.00;96151.84;5007783;28;24508;-79
2023/08/16 07:24:52;;;;;;;3.25;2.83;;;;;;;21.94;100.00;96149.41;5005585;28;24429;-78
2023/08/16 07:27:19;;;;;;;4.22;2.75;;;;;;;21.97;100.00;96147.28;5021003;28;24459;-79
2023/08/16 07:29:46;;;;;;;6.65;2.80;;;;;;;22.00;100.00;96148.78;5006323;28;24528;-78
2023/08/16 07:32:13;;;;;;;3.30;2.55;;;;;;;22.17;100.00;96163.75;5000520;28;24468;-78
2023/08/16 07:34:39;;;;;;;4.03;2.70;;;;;;;22.28;100.00;96165.25;5007328;28;24968;-79
2023/08/16 07:37:06;;;;;;;3.97;2.90;;;;;;;22.24;100.00;96158.63;5005527;28;24440;-78
2023/08/16 07:39:33;;;;;;;4.35;2.90;;;;;;;22.28;100.00;96157.31;5003735;28;24468;-79
2023/08/16 07:41:59;;;;;;;8.87;3.30;;;;;;;22.34;100.00;96155.88;5008947;28;25353;-80
2023/08/16 07:44:27;;;;;;;11.25;2.92;;;;;;;22.54;100.00;96151.13;5003949;28;24440;-80
2023/08/16 07:46:53;;;;;;;8.15;3.15;;;;;;;22.48;100.00;96157.09;5008287;28;24960;-79
2023/08/16 07:49:20;;;;;;;4.10;2.90;;;;;;;22.67;100.00;96162.06;4998739;28;24444;-77
2023/08/16 07:51:47;;;;;;;5.93;2.72;;;;;;;22.73;100.00;96155.31;4994904;28;24444;-77
2023/08/16 07:54:13;;;;;;;3.17;2.60;;;;;;;22.58;100.00;96160.38;4991719;28;25075;-77
2023/08/16 07:56:40;;;;;;;3.47;2.50;;;;;;;22.84;100.00;96161.13;4990657;28;24456;-77
2023/08/16 07:59:06;;;;;;;5.22;2.60;;;;;;;22.96;100.00;96166.13;4989649;28;24809;-77
2023/08/16 08:01:34;;;;;;;3.67;2.50;;;;;;;23.46;100.00;96162.50;4990034;28;24525;-77
2023/08/16 08:04:00;;;;;;;3.70;2.58;;;;;;;23.39;100.00;96159.69;4990678;28;24440;-77
2023/08/16 08:06:27;;;;;;;2.83;2.25;;;;;;;23.86;100.00;96165.09;4991846;28;24445;-77
2023/08/16 08:08:54;;;;;;;4.82;2.88;;;;;;;23.96;100.00;96162.28;4990769;28;24492;-77
2023/08/16 08:11:20;;;;;;;4.88;2.58;;;;;;;24.08;100.00;96157.44;4999048;28;24448;-77
2023/08/16 08:13:47;;;;;;;7.28;2.40;;;;;;;24.35;100.00;96170.22;4995209;28;25023;-77
2023/08/16 08:16:13;;;;;;;2.83;2.30;;;;;;;24.61;100.00;96163.84;5009271;28;24827;-77
2023/08/16 08:18:41;;;;;;;4.30;2.33;;;;;;;24.55;100.00;96169.84;5007048;28;24441;-78
2023/08/16 08:21:07;;;;;;;3.03;2.20;;;;;;;24.71;100.00;96163.63;5001562;28;24444;-76
2023/08/16 08:23:34;;;;;;;6.75;2.55;;;;;;;25.10;100.00;96158.25;5010491;28;24439;-76
2023/08/16 08:26:00;;;;;;;3.08;2.20;;;;;;;25.48;100.00;96163.59;4995528;28;24436;-76
2023/08/16 08:28:27;;;;;;;3.90;2.83;;;;;;;25.74;100.00;96158.72;4994790;28;24433;-76
2023/08/16 08:30:54;;;;;;;5.10;2.92;;;;;;;25.27;100.00;96159.78;5010373;28;24440;-76
2023/08/16 08:33:20;;;;;;;7.15;2.45;;;;;;;25.10;100.00;96153.81;5010624;28;24443;-76
2023/08/16 08:35:50;;;;;;;5.15;2.50;;;;;;;25.07;100.00;96150.66;4996739;28;24455;-76
2023/08/16 08:38:16;;;;;;;3.83;2.60;;;;;;;25.57;100.00;96149.25;4992875;28;24532;-76
2023/08/16 08:40:43;;;;;;;6.53;2.97;;;;;;;25.32;100.00;96160.06;4998478;28;24448;-77
2023/08/16 08:43:11;;;;;;;4.75;2.70;;;;;;;25.61;100.00;96155.84;4990331;28;24428;-77
2023/08/16 08:45:41;;;;;;;4.80;2.83;;;;;;;25.93;100.00;96157.38;4987930;28;24973;-77
2023/08/16 08:48:09;;;;;;;5.28;3.05;;;;;;;25.62;100.00;96156.66;4990452;28;25074;-77
2023/08/16 08:50:38;;;;;;;4.95;3.00;;;;;;;25.77;100.00;96154.84;4994012;28;24499;-77
2023/08/16 08:53:05;;;;;;;7.03;3.28;;;;;;;25.96;100.00;96156.19;5007888;28;24532;-78
2023/08/16 08:55:33;;;;;;;4.82;3.15;;;;;;;26.01;100.00;96157.28;4998835;28;24445;-78
2023/08/16 08:58:02;;;;;;;3.42;3.00;;;;;;;26.19;100.00;96150.78;5010744;28;24491;-77
2023/08/16 09:00:32;;;;;;;4.55;3.33;;;;;;;26.34;100.00;96148.13;4997719;28;24536;-78
2023/08/16 09:03:04;;;;;;;6.28;3.42;;;;;;;26.42;100.00;96153.31;4985200;28;24987;-78
2023/08/16 09:05:32;;;;;;;8.05;2.90;;;;;;;26.59;100.00;96154.78;4993843;28;24443;-78
2023/08/16 09:07:59;;;;;;;6.88;3.40;;;;;;;26.58;100.00;96150.47;5000231;28;24502;-77
2023/08/16 09:10:27;;;;;;;6.67;3.47;;;;;;;26.88;100.00;96156.50;4991147;28;24429;-78
2023/08/16 09:12:54;;;;;;;6.88;3.30;;;;;;;27.11;100.00;96148.41;4992234;28;25008;-78
2023/08/16 09:15:20;;;;;;;5.43;3.13;;;;;;;27.22;100.00;96150.56;4994485;28;24452;-78
2023/08/16 09:17:50;;;;;;;3.95;2.90;;;;;;;27.39;100.00;96153.75;4996879;28;24927;-78
2023/08/16 09:20:16;;;;;;;5.50;2.70;;;;;;;27.59;100.00;96153.94;4999186;28;24453;-78
2023/08/16 09:22:43;;;;;;;5.40;3.40;;;;;;;27.64;100.00;96151.50;4998406;28;24433;-78
2023/08/16 09:25:10;;;;;;;7.05;3.65;;;;;;;27.78;100.00;96143.66;5006146;28;24788;-78
2023/08/16 09:27:41;;;;;;;5.03;3.13;;;;;;;27.82;100.00;96139.59;5001227;28;24478;-77
2023/08/16 09:30:13;;;;;;;5.88;3.38;;;;;;;27.71;100.00;96136.41;5000165;28;24495;-78
2023/08/16 09:32:39;;;;;;;4.40;2.93;;;;;;;27.90;100.00;96142.91;4997392;28;24429;-79
2023/08/16 09:35:06;;;;;;;4.55;3.15;;;;;;;27.60;100.00;96144.13;4993864;28;24444;-78
2023/08/16 09:37:33;;;;;;;5.70;3.00;;;;;;;27.54;100.00;96143.03;5007135;28;24459;-78
2023/08/16 09:40:00;;;;;;;4.60;3.20;;;;;;;27.65;100.00;96144.34;5008995;28;24437;-77
2023/08/16 09:42:33;;;;;;;4.68;3.40;;;;;;;27.71;100.00;96133.75;4998255;28;24448;-79
2023/08/16 09:45:01;;;;;;;7.10;3.27;;;;;;;27.83;100.00;96136.72;4994065;28;24464;-79
2023/08/16 09:47:29;;;;;;;8.25;3.35;;;;;;;27.67;100.00;96135.16;4995722;28;24429;-77
2023/08/16 09:49:56;;;;;;;6.20;3.47;;;;;;;27.92;100.00;96138.22;4993321;28;24453;-77
2023/08/16 09:52:23;;;;;;;8.93;3.27;;;;;;;27.94;100.00;96141.50;4992753;28;25022;-77
2023/08/16 09:54:51;;;;;;;4.38;3.05;;;;;;;28.15;100.00;96139.78;5008965;28;24437;-77
2023/08/16 09:57:19;;;;;;;6.18;3.08;;;;;;;28.37;100.00;96136.03;5008552;28;24452;-77
2023/08/16 09:59:46;;;;;;;5.15;2.90;;;;;;;28.55;100.00;96137.31;4993839;28;25047;-77
2023/08/16 10:02:14;;;;;;;4.65;2.75;;;;;;;28.78;100.00;96135.13;5001934;28;24440;-77
2023/08/16 10:04:41;;;;;;;5.78;3.15;;;;;;;28.81;100.00;96136.56;5004992;28;24444;-76
2023/08/16 10:07:08;;;;;;;6.67;3.00;;;;;;;29.09;100.00;96136.44;4992817;28;25015;-77
2023/08/16 10:09:35;;;;;;;4.72;2.90;;;;;;;28.99;100.00;96131.50;4992076;28;24448;-77
2023/08/16 10:12:03;;;;;;;4.75;2.88;;;;;;;29.14;100.00;96134.00;5002657;28;24428;-80
2023/08/16 10:14:31;;;;;;;4.07;3.10;;;;;;;29.23;100.00;96135.44;5010651;28;24535;-78
2023/08/16 10:17:02;;;;;;;5.60;3.95;;;;;;;28.82;100.00;96124.91;5002800;28;24553;-78
2023/08/16 10:19:32;;;;;;;5.82;3.63;;;;;;;29.20;100.00;96135.84;5005731;28;24448;-77
2023/08/16 10:22:00;;;;;;;8.85;3.40;;;;;;;29.15;100.00;96125.81;5011360;28;25066;-77
2023/08/16 10:24:32;;;;;;;5.65;3.38;;;;;;;29.32;100.00;96109.38;5011206;28;25131;-77
2023/08/16 10:27:01;;;;;;;5.82;3.30;;;;;;;28.92;100.00;96109.31;5011779;28;24432;-77
2023/08/16 10:29:36;;;;;;;5.53;2.93;;;;;;;28.84;100.00;96113.00;5012045;28;24432;-77
2023/08/16 10:32:07;;;;;;;5.32;3.10;;;;;;;29.17;100.00;96109.59;4993922;28;24592;-77
2023/08/16 10:34:36;;;;;;;5.70;3.50;;;;;;;29.34;100.00;96112.69;4992166;28;24809;-77
2023/08/16 10:37:04;;;;;;;4.43;3.13;;;;;;;29.39;100.00;96099.53;5001287;28;24452;-77
2023/08/16 10:39:31;;;;;;;6.25;3.40;;;;;;;29.63;100.00;96100.78;5011258;28;25018;-77
2023/08/16 10:42:03;;;;;;;5.18;3.33;;;;;;;29.55;100.00;96095.59;5010832;28;24436;-77
2023/08/16 10:44:30;;;;;;;5.20;3.27;;;;;;;28.63;100.00;96098.00;5011583;28;24792;-77
2023/08/16 10:46:56;;;;;;;6.93;3.28;;;;;;;29.08;100.00;96095.63;5002974;28;24433;-77
2023/08/16 10:49:37;;;;;;;10.52;3.58;;;;;;;28.93;100.00;96097.66;4990762;28;24840;-77
2023/08/16 10:52:04;;;;;;;7.18;3.70;;;;;;;28.66;100.00;96100.25;5008610;28;24432;-78
2023/08/16 10:54:33;;;;;;;6.43;3.47;;;;;;;29.13;100.00;96097.69;4996232;28;24536;-77
2023/08/16 10:57:02;;;;;;;7.23;3.50;;;;;;;29.41;100.00;96094.81;4996095;28;24481;-76
2023/08/16 10:59:37;;;;;;;4.22;3.17;;;;;;;29.51;100.00;96097.06;5004355;28;24445;-77
2023/08/16 11:02:09;;;;;;;8.00;3.58;;;;;;;29.01;100.00;96092.13;4998583;28;24444;-77
2023/08/16 11:04:38;;;;;;;11.50;3.45;;;;;;;28.99;100.00;96083.50;5011087;28;24447;-76
2023/08/16 11:07:08;;;;;;;6.80;3.65;;;;;;;28.77;100.00;96082.00;4996256;28;24464;-77
2023/08/16 11:09:36;;;;;;;5.45;3.22;;;;;;;28.67;100.00;96082.44;4998327;28;24852;-77
2023/08/16 11:12:03;;;;;;;6.88;4.00;;;;;;;29.38;100.00;96081.88;5003863;28;24436;-77
2023/08/16 11:14:30;;;;;;;5.57;3.45;;;;;;;29.57;100.00;96078.38;5011029;28;24442;-77
2023/08/16 11:16:57;;;;;;;7.87;3.87;;;;;;;29.69;100.00;96085.78;5010552;28;24460;-77
2023/08/16 11:19:23;;;;;;;10.17;3.80;;;;;;;29.64;100.00;96092.56;4986211;28;24524;-76
2023/08/16 11:21:51;;;;;;;8.30;3.50;;;;;;;29.39;100.00;96088.84;4990810;28;25030;-77
2023/08/16 11:24:18;;;;;;;6.05;3.67;;;;;;;28.78;100.00;96081.84;4991703;28;24526;-77